Time;durP1;ratioP1;P1;durP2;ratioP2;P2;SDS_P1;SDS_P2;PMS_P1;PMS_P2;Temp;Humidity;BMP_temperature;BMP_pressure;BME280_temperature;BME280_humidity;BME280_pressure;Samples;Min_cycle;Max_cycle;Signal;HPM_P1;HPM_P2
2022/03/07 00:00:37;;;;;;;4.70;3.42;;;;;;;3.03;72.49;102938.50;5017682;28;20051;-78
2022/03/07 00:03:03;;;;;;;3.50;3.20;;;;;;;3.01;72.44;102935.00;5027818;28;20036;-78
2022/03/07 00:05:29;;;;;;;3.50;3.17;;;;;;;3.00;72.46;102937.56;5036691;28;20044;-78
2022/03/07 00:07:54;;;;;;;3.63;3.33;;;;;;;2.96;72.38;102936.59;5036212;28;20545;-78
2022/03/07 00:10:19;;;;;;;3.45;3.15;;;;;;;2.95;72.40;102932.28;5015046;28;20042;-78
2022/03/07 00:12:45;;;;;;;3.85;3.45;;;;;;;2.92;72.47;102939.97;4997280;28;20348;-78
2022/03/07 00:15:10;;;;;;;4.45;3.70;;;;;;;2.89;72.40;102934.69;5035783;28;20049;-78
2022/03/07 00:17:36;;;;;;;3.17;2.90;;;;;;;2.87;72.56;102936.38;5036149;28;20037;-78
2022/03/07 00:20:03;;;;;;;4.85;3.60;;;;;;;2.85;72.57;102938.06;5021489;28;20037;-78
2022/03/07 00:22:29;;;;;;;3.67;3.38;;;;;;;2.82;72.44;102937.97;5019268;28;20029;-78
2022/03/07 00:24:54;;;;;;;3.70;3.40;;;;;;;2.79;72.69;102938.78;5012552;28;20105;-78
2022/03/07 00:27:19;;;;;;;3.58;3.28;;;;;;;2.77;72.63;102937.00;4993390;28;20037;-78
2022/03/07 00:29:45;;;;;;;3.70;3.40;;;;;;;2.76;72.67;102945.59;4983732;28;20298;-78
2022/03/07 00:32:10;;;;;;;4.07;3.60;;;;;;;2.73;72.40;102941.22;4992985;28;20041;-78
2022/03/07 00:34:36;;;;;;;4.07;3.70;;;;;;;2.71;72.63;102950.66;5013074;28;20352;-78
2022/03/07 00:37:02;;;;;;;4.80;3.55;;;;;;;2.68;72.64;102950.59;5034788;28;20069;-78
2022/03/07 00:39:27;;;;;;;3.22;2.92;;;;;;;2.65;72.60;102948.78;5035209;28;20241;-78
2022/03/07 00:41:52;;;;;;;4.20;3.25;;;;;;;2.63;72.63;102960.78;5017192;28;20029;-78
2022/03/07 00:44:18;;;;;;;4.00;3.70;;;;;;;2.60;72.66;102952.97;5018757;28;20040;-78
2022/03/07 00:46:43;;;;;;;4.68;3.30;;;;;;;2.59;72.59;102958.09;5034811;28;20033;-78
2022/03/07 00:49:09;;;;;;;3.97;3.20;;;;;;;2.57;72.61;102955.47;5016762;28;20044;-78
2022/03/07 00:51:34;;;;;;;5.32;3.17;;;;;;;2.57;72.53;102963.22;5017794;28;20083;-78
2022/03/07 00:54:00;;;;;;;3.38;3.00;;;;;;;2.53;72.68;102956.25;5035432;28;20353;-78
2022/03/07 00:56:25;;;;;;;3.60;3.30;;;;;;;2.52;72.69;102961.38;5035166;28;20244;-78
2022/03/07 00:58:50;;;;;;;4.65;3.10;;;;;;;2.50;72.54;102958.72;5024326;28;20056;-78
2022/03/07 01:01:16;;;;;;;5.68;4.07;;;;;;;2.48;72.52;102958.69;5017258;28;20376;-78
2022/03/07 01:03:41;;;;;;;3.53;3.22;;;;;;;2.45;72.66;102961.19;5036068;28;20057;-78
2022/03/07 01:06:07;;;;;;;3.50;3.20;;;;;;;2.43;72.64;102960.25;5018143;28;20309;-78
2022/03/07 01:08:32;;;;;;;3.10;2.90;;;;;;;2.41;72.57;102967.09;5036570;28;20601;-78
2022/03/07 01:10:58;;;;;;;4.05;2.90;;;;;;;2.39;72.52;102963.63;5035335;28;20029;-78
2022/03/07 01:13:25;;;;;;;3.60;3.30;;;;;;;2.37;72.72;102965.28;5019136;28;20052;-78
2022/03/07 01:15:50;;;;;;;3.15;2.85;;;;;;;2.34;72.61;102965.19;5033050;28;20041;-78
2022/03/07 01:18:16;;;;;;;3.03;2.83;;;;;;;2.33;72.53;102962.56;4984816;28;20284;-78
2022/03/07 01:20:41;;;;;;;3.33;3.03;;;;;;;2.29;72.63;102961.59;5034498;28;20040;-78
2022/03/07 01:23:07;;;;;;;3.40;3.03;;;;;;;2.26;72.37;102964.13;5034833;28;20060;-78
2022/03/07 01:25:33;;;;;;;3.88;3.15;;;;;;;2.24;72.53;102960.63;5034921;28;20049;-78
2022/03/07 01:27:59;;;;;;;5.60;3.58;;;;;;;2.20;72.35;102956.16;5017872;28;20041;-78
2022/03/07 01:30:24;;;;;;;3.70;3.38;;;;;;;2.17;72.27;102963.88;5034617;28;20041;-78
2022/03/07 01:32:52;;;;;;;6.00;3.42;;;;;;;2.14;72.50;102961.19;5018123;28;20057;-78
2022/03/07 01:35:18;;;;;;;3.50;3.08;;;;;;;2.11;72.34;102968.03;5030141;28;20331;-78
2022/03/07 01:37:43;;;;;;;3.85;3.10;;;;;;;2.09;72.54;102967.09;5017649;28;20034;-78
2022/03/07 01:40:09;;;;;;;5.00;3.00;;;;;;;2.07;72.57;102961.03;5016910;28;20052;-78
2022/03/07 01:42:34;;;;;;;4.15;3.75;;;;;;;2.04;72.57;102963.50;5001886;28;20029;-78
2022/03/07 01:45:11;;;;;;;3.72;3.22;;;;;;;2.02;72.63;102960.00;5018072;28;20048;-78
2022/03/07 01:47:37;;;;;;;3.97;3.10;;;;;;;2.01;72.65;102954.78;5036971;28;20236;-78
2022/03/07 01:50:05;;;;;;;3.83;3.42;;;;;;;1.97;72.62;102959.00;5001131;28;20349;-78
2022/03/07 01:52:33;;;;;;;3.67;3.38;;;;;;;1.96;72.55;102956.34;5036212;28;20079;-78
2022/03/07 01:54:58;;;;;;;3.13;2.83;;;;;;;1.95;72.55;102960.66;5018101;28;20021;-78
2022/03/07 01:57:24;;;;;;;3.70;3.28;;;;;;;1.93;72.69;102954.56;5018822;28;20084;-78
2022/03/07 01:59:49;;;;;;;3.75;3.25;;;;;;;1.90;72.79;102957.94;5035377;28;20069;-78
2022/03/07 02:02:15;;;;;;;3.88;3.45;;;;;;;1.89;72.75;102955.28;4999922;28;20045;-78
2022/03/07 02:04:40;;;;;;;4.80;3.05;;;;;;;1.87;72.71;102957.88;5005476;28;20034;-78
2022/03/07 02:07:06;;;;;;;4.80;3.50;;;;;;;1.84;72.86;102952.59;5035432;28;20088;-78
2022/03/07 02:09:31;;;;;;;3.45;3.15;;;;;;;1.82;72.94;102949.09;5018097;28;20052;-78
2022/03/07 02:11:57;;;;;;;5.60;3.58;;;;;;;1.82;72.88;102948.19;5001571;28;20025;-78
2022/03/07 02:14:23;;;;;;;3.55;3.25;;;;;;;1.79;72.88;102941.25;5015984;28;20080;-78
2022/03/07 02:16:49;;;;;;;3.95;3.55;;;;;;;1.77;73.08;102939.47;5033405;28;20036;-78
2022/03/07 02:19:15;;;;;;;4.53;3.17;;;;;;;1.75;72.96;102939.41;5002032;28;20095;-78
2022/03/07 02:21:47;;;;;;;6.60;3.97;;;;;;;1.75;73.22;102938.50;5036419;28;20101;-78
2022/03/07 02:24:13;;;;;;;5.55;3.72;;;;;;;1.72;73.26;102945.34;5018372;28;20230;-78
2022/03/07 02:26:39;;;;;;;5.13;3.28;;;;;;;1.72;73.44;102936.72;5035859;28;20036;-78
2022/03/07 02:29:07;;;;;;;4.18;3.72;;;;;;;1.71;73.38;102942.72;5035959;28;20029;-78
2022/03/07 02:31:34;;;;;;;5.40;3.90;;;;;;;1.70;73.34;102941.84;5036400;28;20095;-78
2022/03/07 02:34:00;;;;;;;3.80;3.50;;;;;;;1.71;73.52;102940.13;5010793;28;20045;-78
2022/03/07 02:36:26;;;;;;;5.07;3.67;;;;;;;1.71;73.88;102937.53;5017954;28;20238;-78
2022/03/07 02:38:51;;;;;;;4.10;3.70;;;;;;;1.70;73.69;102935.81;5035753;28;20083;-78
2022/03/07 02:41:16;;;;;;;3.90;3.42;;;;;;;1.70;73.47;102931.50;5036268;28;20088;-78
2022/03/07 02:43:42;;;;;;;4.38;3.58;;;;;;;1.70;73.60;102931.50;5035786;28;20045;-78
2022/03/07 02:46:07;;;;;;;4.10;3.70;;;;;;;1.71;73.80;102937.53;5035801;28;20037;-78
2022/03/07 02:48:32;;;;;;;5.55;3.60;;;;;;;1.69;73.85;102927.19;5036152;28;20072;-78
2022/03/07 02:50:58;;;;;;;3.45;3.10;;;;;;;1.70;73.82;102933.22;5001841;28;20033;-78
2022/03/07 02:53:24;;;;;;;4.50;4.05;;;;;;;1.70;73.66;102931.50;5017751;28;20037;-78
2022/03/07 02:55:50;;;;;;;3.35;3.05;;;;;;;1.71;74.15;102927.22;5035543;28;20042;-78
2022/03/07 02:58:16;;;;;;;3.33;3.05;;;;;;;1.70;74.24;102921.16;5001546;28;20302;-78
2022/03/07 03:00:41;;;;;;;4.05;3.63;;;;;;;1.72;74.30;102921.22;5036071;28;20072;-78
2022/03/07 03:03:06;;;;;;;2.95;2.75;;;;;;;1.73;74.48;102926.44;5037322;28;20045;-78
2022/03/07 03:05:32;;;;;;;6.15;3.80;;;;;;;1.76;74.51;102922.19;5002035;28;20056;-78
2022/03/07 03:07:57;;;;;;;4.40;4.00;;;;;;;1.77;74.62;102923.97;5029107;28;20041;-78
2022/03/07 03:10:23;;;;;;;4.20;3.90;;;;;;;1.77;74.57;102924.81;5020769;28;20250;-78
2022/03/07 03:12:48;;;;;;;3.40;3.10;;;;;;;1.78;74.44;102917.94;5021694;28;20041;-78
2022/03/07 03:15:14;;;;;;;4.00;3.70;;;;;;;1.78;74.68;102926.56;5021033;28;20055;-78
2022/03/07 03:17:44;;;;;;;3.63;3.28;;;;;;;1.79;74.43;102924.88;5039514;28;20037;-78
2022/03/07 03:20:11;;;;;;;4.65;3.40;;;;;;;1.79;74.55;102927.47;5038762;28;20051;-78
2022/03/07 03:22:38;;;;;;;4.22;3.80;;;;;;;1.79;74.41;102930.03;5021412;28;20383;-78
2022/03/07 03:25:06;;;;;;;3.60;3.30;;;;;;;1.79;74.80;102928.31;5020829;28;20029;-78
2022/03/07 03:27:31;;;;;;;3.70;3.40;;;;;;;1.81;74.43;102928.38;5038644;28;20491;-78
2022/03/07 03:29:57;;;;;;;3.70;3.40;;;;;;;1.82;74.68;102930.09;4988403;28;20125;-78
2022/03/07 03:32:23;;;;;;;3.88;3.55;;;;;;;1.82;74.63;102925.84;5038766;28;20033;-78
2022/03/07 03:34:48;;;;;;;4.40;3.08;;;;;;;1.83;74.72;102922.41;5020798;28;20072;-78
2022/03/07 03:37:13;;;;;;;4.60;4.20;;;;;;;1.80;74.96;102919.75;5020380;28;20292;-78
2022/03/07 03:39:39;;;;;;;4.68;3.67;;;;;;;1.81;74.96;102916.31;5038796;28;20041;-79
2022/03/07 03:42:05;;;;;;;3.72;3.40;;;;;;;1.83;75.08;102913.78;5037971;28;20233;-78
2022/03/07 03:44:30;;;;;;;4.25;3.85;;;;;;;1.82;74.78;102917.19;5038736;28;20221;-78
2022/03/07 03:46:55;;;;;;;3.88;3.58;;;;;;;1.84;75.08;102907.81;5019854;28;20029;-78
2022/03/07 03:49:21;;;;;;;3.35;3.15;;;;;;;1.83;75.03;102906.91;5020759;28;20045;-78
2022/03/07 03:51:46;;;;;;;3.05;2.85;;;;;;;1.85;74.78;102912.13;5021222;28;20048;-78
2022/03/07 03:54:12;;;;;;;4.18;2.88;;;;;;;1.86;74.96;102909.59;5021005;28;20049;-78
2022/03/07 03:56:37;;;;;;;4.32;3.50;;;;;;;1.87;74.68;102916.53;5004046;28;20389;-78
2022/03/07 03:59:03;;;;;;;3.60;3.30;;;;;;;1.87;74.95;102908.78;5037801;28;20080;-78
2022/03/07 04:01:28;;;;;;;3.67;3.35;;;;;;;1.88;74.91;102902.75;5037700;28;20075;-78
2022/03/07 04:03:54;;;;;;;4.35;3.15;;;;;;;1.87;74.74;102902.69;5020496;28;20086;-78
2022/03/07 04:06:19;;;;;;;5.20;4.10;;;;;;;1.84;74.49;102913.84;5037604;28;20100;-78
2022/03/07 04:08:46;;;;;;;3.65;3.35;;;;;;;1.84;74.50;102912.97;5020172;28;20045;-78
2022/03/07 04:11:12;;;;;;;3.22;2.75;;;;;;;1.81;74.50;102918.91;5020276;28;20099;-78
2022/03/07 04:13:37;;;;;;;3.70;3.40;;;;;;;1.80;74.57;102913.69;5037399;28;20098;-78
2022/03/07 04:16:03;;;;;;;4.35;3.78;;;;;;;1.80;74.67;102913.69;5001148;28;20034;-78
2022/03/07 04:18:28;;;;;;;3.50;3.08;;;;;;;1.81;74.58;102915.47;5019125;28;20549;-78
2022/03/07 04:20:54;;;;;;;3.88;3.58;;;;;;;1.78;74.60;102918.81;5003773;28;20052;-78
2022/03/07 04:23:21;;;;;;;3.22;3.03;;;;;;;1.78;74.37;102916.22;5037837;28;20056;-78
2022/03/07 04:25:50;;;;;;;3.30;3.10;;;;;;;1.76;74.32;102914.44;5000984;28;20034;-78
2022/03/07 04:28:16;;;;;;;3.78;3.40;;;;;;;1.75;74.47;102916.16;5016384;28;20033;-78
2022/03/07 04:30:42;;;;;;;3.33;3.05;;;;;;;1.73;74.25;102916.09;5037882;28;20404;-78
2022/03/07 04:33:08;;;;;;;6.13;3.40;;;;;;;1.72;74.19;102921.22;5036321;28;20053;-78
2022/03/07 04:35:34;;;;;;;3.60;3.28;;;;;;;1.69;74.30;102908.22;5037740;28;20468;-78
2022/03/07 04:38:01;;;;;;;3.15;2.90;;;;;;;1.68;74.30;102911.63;5037551;28;20053;-78
2022/03/07 04:40:27;;;;;;;3.42;3.13;;;;;;;1.65;74.40;102912.41;5019852;28;20321;-78
2022/03/07 04:42:52;;;;;;;4.13;3.58;;;;;;;1.63;74.35;102908.91;5037333;28;20033;-78
2022/03/07 04:45:18;;;;;;;3.88;3.53;;;;;;;1.62;74.23;102908.84;5019554;28;20033;-78
2022/03/07 04:47:44;;;;;;;3.50;3.20;;;;;;;1.59;74.49;102907.06;5019526;28;20036;-78
2022/03/07 04:50:10;;;;;;;4.07;3.70;;;;;;;1.57;74.25;102908.75;5019725;28;20059;-78
2022/03/07 04:52:35;;;;;;;3.45;3.13;;;;;;;1.56;74.34;102909.56;5037185;28;20029;-78
2022/03/07 04:55:01;;;;;;;6.72;4.15;;;;;;;1.52;74.39;102907.72;5037349;28;20108;-78
2022/03/07 04:57:27;;;;;;;5.53;3.97;;;;;;;1.50;74.27;102911.97;5036984;28;20041;-78
2022/03/07 04:59:52;;;;;;;4.05;3.65;;;;;;;1.48;74.31;102909.34;5002868;28;20044;-78
2022/03/07 05:02:17;;;;;;;4.63;3.97;;;;;;;1.47;74.22;102910.16;5037124;28;20349;-78
2022/03/07 05:04:43;;;;;;;4.45;3.60;;;;;;;1.45;74.26;102913.53;5037393;28;20041;-78
2022/03/07 05:07:09;;;;;;;10.35;4.40;;;;;;;1.43;74.34;102913.47;5019290;28;20068;-78
2022/03/07 05:09:34;;;;;;;4.35;3.67;;;;;;;1.41;74.37;102916.84;5019442;28;20341;-78
2022/03/07 05:12:00;;;;;;;3.67;3.38;;;;;;;1.38;74.18;102907.28;5036666;28;20044;-78
2022/03/07 05:14:26;;;;;;;4.20;3.80;;;;;;;1.36;74.48;102908.09;5036695;28;20044;-78
2022/03/07 05:16:51;;;;;;;5.63;3.67;;;;;;;1.36;74.36;102905.50;5036893;28;20040;-78
2022/03/07 05:19:17;;;;;;;4.32;3.67;;;;;;;1.31;74.34;102906.25;5018945;28;20040;-77
2022/03/07 05:21:43;;;;;;;5.32;3.85;;;;;;;1.28;74.40;102913.88;5019181;28;20072;-77
2022/03/07 05:24:09;;;;;;;4.45;4.05;;;;;;;1.27;74.29;102914.69;5019012;28;20232;-77
2022/03/07 05:26:35;;;;;;;4.38;3.97;;;;;;;1.26;74.39;102912.09;5036387;28;20041;-77
2022/03/07 05:29:01;;;;;;;4.78;4.13;;;;;;;1.23;74.35;102915.44;5019037;28;20087;-77
2022/03/07 05:31:26;;;;;;;4.53;4.00;;;;;;;1.21;74.33;102914.53;5019347;28;20033;-77
2022/03/07 05:33:52;;;;;;;5.30;4.35;;;;;;;1.19;74.51;102911.03;5013960;28;20048;-77
2022/03/07 05:36:17;;;;;;;3.88;3.58;;;;;;;1.18;74.42;102916.13;5003833;28;20045;-77
2022/03/07 05:38:42;;;;;;;4.60;3.90;;;;;;;1.16;74.44;102916.06;5003523;28;20049;-77
2022/03/07 05:41:08;;;;;;;5.25;4.38;;;;;;;1.16;74.50;102918.66;5003681;28;20047;-77
2022/03/07 05:43:34;;;;;;;5.43;4.38;;;;;;;1.14;74.51;102920.31;5015424;28;20034;-77
2022/03/07 05:46:00;;;;;;;4.72;4.13;;;;;;;1.13;74.57;102921.16;4998906;28;20330;-77
2022/03/07 05:48:25;;;;;;;5.07;4.32;;;;;;;1.12;74.54;102932.31;4999186;28;20046;-77
2022/03/07 05:50:51;;;;;;;5.85;4.30;;;;;;;1.09;74.62;102927.03;5001217;28;20152;-77
2022/03/07 05:53:21;;;;;;;4.38;3.97;;;;;;;1.08;74.64;102931.31;5016608;28;20046;-77
2022/03/07 05:55:47;;;;;;;4.72;4.13;;;;;;;1.06;74.47;102932.13;4984967;28;20045;-77
2022/03/07 05:58:12;;;;;;;5.22;4.00;;;;;;;1.05;74.65;102935.50;4984105;28;20041;-77
2022/03/07 06:00:37;;;;;;;4.10;3.72;;;;;;;1.04;74.49;102933.78;4983363;28;20293;-77
2022/03/07 06:03:03;;;;;;;4.03;3.67;;;;;;;1.02;74.77;102927.66;4996801;28;20041;-77
2022/03/07 06:05:28;;;;;;;6.00;4.70;;;;;;;1.01;74.70;102936.25;4996852;28;20025;-77
2022/03/07 06:07:54;;;;;;;5.22;4.28;;;;;;;1.00;74.61;102942.22;5014713;28;20253;-77
2022/03/07 06:10:20;;;;;;;5.30;4.35;;;;;;;0.99;74.86;102948.22;5017496;28;20296;-77
2022/03/07 06:12:45;;;;;;;4.68;4.28;;;;;;;0.98;74.65;102952.50;4962154;28;20229;-77
2022/03/07 06:15:10;;;;;;;5.35;4.32;;;;;;;0.96;74.58;102961.88;5007463;28;20059;-77
2022/03/07 06:17:36;;;;;;;5.63;4.03;;;;;;;0.97;74.55;102962.78;5026065;28;20426;-77
2022/03/07 06:20:02;;;;;;;5.75;3.95;;;;;;;0.95;74.68;102962.72;4982457;28;20038;-77
2022/03/07 06:22:27;;;;;;;4.93;4.32;;;;;;;0.91;74.95;102956.59;5016753;28;20040;-77
2022/03/07 06:24:52;;;;;;;4.40;4.00;;;;;;;0.92;74.83;102963.50;5019493;28;20105;-77
2022/03/07 06:27:18;;;;;;;4.32;3.92;;;;;;;0.91;74.74;102959.16;5003357;28;20061;-77
2022/03/07 06:29:43;;;;;;;6.47;3.67;;;;;;;0.90;74.69;102954.81;4997225;28;20058;-77
2022/03/07 06:32:09;;;;;;;5.80;4.20;;;;;;;0.91;74.61;102956.59;4995104;28;20034;-77
2022/03/07 06:34:35;;;;;;;5.53;4.15;;;;;;;0.90;74.79;102959.13;5002015;28;20062;-77
2022/03/07 06:37:01;;;;;;;4.78;4.13;;;;;;;0.88;74.76;102960.78;5022748;28;20039;-77
2022/03/07 06:39:27;;;;;;;5.45;3.97;;;;;;;0.88;74.74;102953.03;5010884;28;20045;-77
2022/03/07 06:41:56;;;;;;;4.70;4.18;;;;;;;0.87;74.83;102965.03;4992675;28;20053;-77
2022/03/07 06:44:25;;;;;;;4.18;3.78;;;;;;;0.87;74.92;102964.16;5018838;28;20249;-77
2022/03/07 06:46:50;;;;;;;3.92;3.30;;;;;;;0.86;74.87;102962.44;4991343;28;20041;-77
2022/03/07 06:49:16;;;;;;;5.40;3.58;;;;;;;0.87;74.86;102972.78;4993277;28;20041;-77
2022/03/07 06:51:41;;;;;;;4.18;3.75;;;;;;;0.87;74.96;102967.59;5000753;28;20059;-77
2022/03/07 06:54:07;;;;;;;4.32;4.03;;;;;;;0.89;75.27;102968.56;5002288;28;20088;-77
2022/03/07 06:56:33;;;;;;;6.57;3.60;;;;;;;0.92;75.40;102967.78;5018339;28;20073;-77
2022/03/07 06:58:59;;;;;;;4.80;4.40;;;;;;;0.94;75.44;102966.13;5017022;28;20385;-77
2022/03/07 07:01:25;;;;;;;7.55;4.38;;;;;;;0.94;75.57;102966.13;4999573;28;20108;-77
2022/03/07 07:03:50;;;;;;;4.78;4.38;;;;;;;0.95;75.71;102961.03;4982362;28;20037;-77
2022/03/07 07:06:15;;;;;;;5.50;4.88;;;;;;;0.97;75.99;102966.22;4984234;28;20348;-78
2022/03/07 07:08:41;;;;;;;6.68;4.70;;;;;;;0.99;75.96;102974.03;5018022;28;20052;-78
2022/03/07 07:11:06;;;;;;;5.47;4.97;;;;;;;1.01;76.00;102973.25;4982981;28;20228;-78
2022/03/07 07:13:32;;;;;;;6.40;5.80;;;;;;;1.03;76.44;102975.88;4968056;28;20033;-78
2022/03/07 07:15:57;;;;;;;6.25;5.22;;;;;;;1.03;76.20;102979.31;4995185;28;20104;-78
2022/03/07 07:18:24;;;;;;;5.97;5.25;;;;;;;1.03;76.51;102979.31;4998529;28;20030;-78
2022/03/07 07:20:52;;;;;;;8.00;6.55;;;;;;;1.02;77.16;102977.59;5017232;28;20041;-78
2022/03/07 07:23:19;;;;;;;8.27;6.10;;;;;;;1.05;76.98;102981.97;4999739;28;20030;-78
2022/03/07 07:25:44;;;;;;;8.35;6.50;;;;;;;1.04;77.12;102975.06;4984218;28;20061;-78
2022/03/07 07:28:10;;;;;;;10.40;6.50;;;;;;;1.05;76.99;102977.66;5000483;28;20107;-78
2022/03/07 07:30:35;;;;;;;6.25;5.57;;;;;;;1.07;77.09;102977.72;5018720;28;20034;-78
2022/03/07 07:33:01;;;;;;;7.18;5.90;;;;;;;1.08;76.97;102970.03;5010691;28;20356;-78
2022/03/07 07:35:26;;;;;;;10.70;6.30;;;;;;;1.12;77.26;102978.75;4992430;28;20037;-78
2022/03/07 07:37:52;;;;;;;7.50;6.18;;;;;;;1.13;77.46;102981.41;5008528;28;20049;-78
2022/03/07 07:40:17;;;;;;;9.90;6.82;;;;;;;1.14;77.13;102979.69;5036762;28;20045;-78
2022/03/07 07:42:42;;;;;;;8.10;6.43;;;;;;;1.16;77.23;102985.75;5009182;28;20030;-78
2022/03/07 07:45:09;;;;;;;8.60;5.90;;;;;;;1.19;77.73;102985.00;5021410;28;20037;-78
2022/03/07 07:47:34;;;;;;;7.82;6.25;;;;;;;1.20;77.55;102985.06;5035676;28;20083;-78
2022/03/07 07:49:59;;;;;;;7.20;6.32;;;;;;;1.21;77.55;102986.81;5023153;28;20329;-78
2022/03/07 07:52:25;;;;;;;9.55;7.82;;;;;;;1.23;77.49;102986.84;5011991;28;20128;-78
2022/03/07 07:54:50;;;;;;;11.93;8.65;;;;;;;1.23;77.92;102985.13;5033762;28;20103;-78
2022/03/07 07:57:15;;;;;;;11.50;9.07;;;;;;;1.21;77.89;102985.94;5036974;28;20041;-78
2022/03/07 07:59:41;;;;;;;11.23;8.70;;;;;;;1.20;78.02;102987.66;5018946;28;20033;-78
2022/03/07 08:02:07;;;;;;;12.68;9.23;;;;;;;1.19;78.12;102983.28;4999494;28;20033;-78
2022/03/07 08:04:32;;;;;;;10.23;8.50;;;;;;;1.21;78.35;102983.34;5029585;28;20255;-78
2022/03/07 08:06:57;;;;;;;8.43;7.63;;;;;;;1.23;78.25;102985.13;5010573;28;20036;-78
2022/03/07 08:09:23;;;;;;;10.07;7.57;;;;;;;1.24;78.41;102989.50;5022882;28;20041;-77
2022/03/07 08:11:48;;;;;;;10.50;8.75;;;;;;;1.29;78.34;102992.19;5036191;28;20228;-78
2022/03/07 08:14:14;;;;;;;11.23;8.10;;;;;;;1.29;78.25;102987.94;5002455;28;20525;-78
2022/03/07 08:16:39;;;;;;;13.82;8.95;;;;;;;1.30;78.70;102988.81;5018912;28;20065;-77
2022/03/07 08:19:05;;;;;;;11.75;9.15;;;;;;;1.31;78.58;102986.28;5036826;28;20348;-77
2022/03/07 08:21:30;;;;;;;9.02;7.53;;;;;;;1.36;78.42;102988.13;5033225;28;20072;-77
2022/03/07 08:23:56;;;;;;;12.30;9.60;;;;;;;1.34;77.92;102981.19;5035381;28;20410;-77
2022/03/07 08:26:22;;;;;;;15.55;9.00;;;;;;;1.36;77.99;102986.41;5030104;28;20029;-77
2022/03/07 08:28:48;;;;;;;11.40;8.75;;;;;;;1.37;77.46;102987.31;5032553;28;20451;-77
2022/03/07 08:31:13;;;;;;;10.15;8.77;;;;;;;1.39;77.44;102989.09;5035075;28;20017;-77
2022/03/07 08:33:39;;;;;;;10.52;7.97;;;;;;;1.40;77.28;102993.44;5036428;28;20049;-77
2022/03/07 08:36:04;;;;;;;9.00;8.10;;;;;;;1.44;77.57;102995.28;5018041;28;20041;-77
2022/03/07 08:38:31;;;;;;;8.95;8.02;;;;;;;1.47;77.54;102997.94;5018579;28;20037;-77
2022/03/07 08:40:57;;;;;;;11.30;7.68;;;;;;;1.48;77.12;102996.25;5032003;28;20061;-77
2022/03/07 08:43:22;;;;;;;10.55;8.25;;;;;;;1.50;76.65;102995.47;5035876;28;20064;-78
2022/03/07 08:45:48;;;;;;;10.50;7.30;;;;;;;1.55;76.97;102995.63;5036145;28;20101;-78
2022/03/07 08:48:13;;;;;;;8.55;7.65;;;;;;;1.62;76.97;102987.25;5030981;28;20049;-78
2022/03/07 08:50:39;;;;;;;11.77;7.88;;;;;;;1.66;76.18;102994.25;5015619;28;20049;-78
2022/03/07 08:53:04;;;;;;;9.13;7.57;;;;;;;1.65;75.68;102995.06;5035128;28;20049;-78
2022/03/07 08:55:30;;;;;;;9.77;7.10;;;;;;;1.69;75.73;102993.44;5035638;28;20233;-78
2022/03/07 08:57:55;;;;;;;9.10;7.75;;;;;;;1.70;73.77;102988.34;5035023;28;20072;-77
2022/03/07 09:00:20;;;;;;;8.07;7.38;;;;;;;1.73;74.18;102996.19;5018494;28;20390;-77
2022/03/07 09:02:47;;;;;;;7.30;6.57;;;;;;;1.77;74.04;102996.28;5003609;28;20056;-78
2022/03/07 09:05:12;;;;;;;8.70;7.13;;;;;;;1.78;73.93;102991.16;5001713;28;20047;-78
2022/03/07 09:07:38;;;;;;;10.88;7.35;;;;;;;1.81;73.21;102992.97;5032879;28;20041;-78
2022/03/07 09:10:04;;;;;;;12.38;7.10;;;;;;;1.83;72.82;102996.47;5010704;28;20021;-78
2022/03/07 09:12:29;;;;;;;8.70;7.30;;;;;;;1.84;71.47;102990.47;4999419;28;20033;-78
2022/03/07 09:14:57;;;;;;;6.65;6.03;;;;;;;1.87;71.87;102986.28;5034564;28;20040;-78
2022/03/07 09:17:23;;;;;;;8.25;6.15;;;;;;;1.91;71.17;102982.94;5019438;28;20041;-78
2022/03/07 09:19:49;;;;;;;8.85;6.80;;;;;;;1.94;70.82;102987.31;5034181;28;20025;-78
2022/03/07 09:22:14;;;;;;;7.10;6.45;;;;;;;1.99;71.19;102984.88;5032925;28;20040;-78
2022/03/07 09:24:39;;;;;;;6.93;5.82;;;;;;;2.05;71.17;102979.88;5034036;28;20245;-77
2022/03/07 09:27:05;;;;;;;7.35;5.68;;;;;;;2.05;69.85;102975.59;5013666;28;20105;-77
2022/03/07 09:29:30;;;;;;;9.43;6.20;;;;;;;2.09;69.98;102977.44;5013820;28;20417;-78
2022/03/07 09:31:56;;;;;;;5.90;5.30;;;;;;;2.14;70.23;102968.94;5034213;28;20103;-78
2022/03/07 09:34:21;;;;;;;8.88;5.75;;;;;;;2.15;69.77;102973.25;5030732;28;20362;-78
2022/03/07 09:36:47;;;;;;;5.75;5.25;;;;;;;2.18;70.28;102971.63;5035099;28;20276;-78
2022/03/07 09:39:12;;;;;;;5.20;4.70;;;;;;;2.22;69.93;102965.75;5000826;28;20040;-78
2022/03/07 09:41:41;;;;;;;5.82;5.28;;;;;;;2.22;68.41;102963.16;5034999;28;20091;-78
2022/03/07 09:44:06;;;;;;;;;;;;;;;2.24;68.45;102960.63;5017457;28;20091;-78
2022/03/07 09:46:32;;;;;;;6.45;5.22;;;;;;;2.27;68.07;102959.00;5034079;28;19917;-78
2022/03/07 09:48:57;;;;;;;6.10;5.35;;;;;;;2.29;68.37;102951.25;5017136;28;20202;-78
2022/03/07 09:51:23;;;;;;;6.22;5.63;;;;;;;2.34;68.67;102949.69;5018248;28;20225;-78
2022/03/07 09:53:49;;;;;;;6.05;5.45;;;;;;;2.38;68.72;102950.63;5036694;28;20037;-78
2022/03/07 09:56:14;;;;;;;5.20;4.65;;;;;;;2.42;68.37;102947.28;5035679;28;20229;-78
2022/03/07 09:58:39;;;;;;;5.20;4.70;;;;;;;2.47;68.04;102948.28;5035823;28;20045;-78
2022/03/07 10:01:10;;;;;;;6.25;5.65;;;;;;;2.50;67.81;102938.91;5035533;28;20059;-78
2022/03/07 10:03:36;;;;;;;5.68;5.18;;;;;;;2.53;67.02;102937.22;5035684;28;20260;-78
2022/03/07 10:06:01;;;;;;;5.47;4.90;;;;;;;2.58;66.96;102938.22;5041399;28;20132;-78
2022/03/07 10:08:29;;;;;;;6.28;5.50;;;;;;;2.63;66.58;102939.22;5035887;28;20037;-78
2022/03/07 10:10:56;;;;;;;8.68;5.57;;;;;;;2.65;67.02;102937.56;5017378;28;20060;-78
2022/03/07 10:13:22;;;;;;;6.07;5.47;;;;;;;2.68;66.82;102927.28;5021359;28;20037;-78
2022/03/07 10:15:57;;;;;;;5.90;5.35;;;;;;;2.68;66.62;102915.22;5038921;28;20071;-78
2022/03/07 10:18:23;;;;;;;9.70;5.68;;;;;;;2.72;67.03;102928.25;5039262;28;20029;-78
2022/03/07 10:20:53;;;;;;;6.85;5.63;;;;;;;2.74;66.60;102924.84;5021583;28;20518;-78
2022/03/07 10:23:20;;;;;;;6.80;5.88;;;;;;;2.76;67.15;102917.13;5039570;28;20194;-78
2022/03/07 10:25:46;;;;;;;5.75;5.25;;;;;;;2.78;67.30;102916.31;5021597;28;20353;-78
2022/03/07 10:28:13;;;;;;;6.45;5.80;;;;;;;2.81;67.22;102911.22;5039758;28;20041;-78
2022/03/07 10:30:40;;;;;;;7.68;5.63;;;;;;;2.88;66.89;102909.69;5018618;28;20379;-78
2022/03/07 10:33:08;;;;;;;6.63;5.20;;;;;;;2.94;65.94;102909.81;5042895;28;20124;-78
2022/03/07 10:35:47;;;;;;;6.32;4.85;;;;;;;2.98;65.89;102903.00;5020719;28;20117;-78
2022/03/07 10:38:15;;;;;;;8.45;5.40;;;;;;;3.00;66.08;102901.31;5051342;28;20029;-78
2022/03/07 10:40:53;;;;;;;5.63;5.07;;;;;;;3.08;65.16;102895.50;5019602;28;20108;-79
2022/03/07 10:43:21;;;;;;;6.10;5.10;;;;;;;3.11;65.46;102889.53;5038699;28;20045;-78
2022/03/07 10:45:58;;;;;;;6.38;4.97;;;;;;;3.15;64.91;102887.88;5039420;28;20033;-78
2022/03/07 10:48:27;;;;;;;5.40;4.90;;;;;;;3.17;65.85;102892.25;5038113;28;20547;-78
2022/03/07 10:50:55;;;;;;;4.88;4.50;;;;;;;3.22;65.32;102888.06;5018384;28;20025;-78
2022/03/07 10:53:21;;;;;;;6.25;5.43;;;;;;;3.24;65.63;102894.13;5038485;28;20041;-78
2022/03/07 10:55:57;;;;;;;5.85;5.28;;;;;;;3.27;65.42;102877.78;5027546;28;20025;-78
2022/03/07 10:58:23;;;;;;;6.50;5.25;;;;;;;3.32;65.34;102885.66;5038093;28;20328;-78
2022/03/07 11:00:55;;;;;;;8.05;5.20;;;;;;;3.35;64.65;102873.66;5038723;28;20025;-77
2022/03/07 11:03:29;;;;;;;5.55;5.05;;;;;;;3.40;64.41;102861.69;5021301;28;20152;-78
2022/03/07 11:05:55;;;;;;;5.90;5.30;;;;;;;3.45;64.31;102866.94;5036039;28;20087;-78
2022/03/07 11:08:21;;;;;;;6.28;5.63;;;;;;;3.46;64.09;102866.13;5046470;28;20041;-78
2022/03/07 11:11:05;;;;;;;8.90;5.82;;;;;;;3.50;64.02;102867.94;5038837;28;20041;-78
2022/03/07 11:13:31;;;;;;;6.95;5.47;;;;;;;3.51;64.32;102863.59;5038875;28;20122;-78
2022/03/07 11:16:00;;;;;;;7.10;5.40;;;;;;;3.53;64.48;102861.91;5038344;28;20041;-78
2022/03/07 11:18:26;;;;;;;5.30;4.90;;;;;;;3.58;63.44;102865.47;5020806;28;20121;-78
2022/03/07 11:20:54;;;;;;;5.22;4.82;;;;;;;3.61;62.81;102868.16;5020665;28;20033;-78
2022/03/07 11:23:22;;;;;;;7.57;5.72;;;;;;;3.69;62.60;102870.88;5040575;28;20388;-78
2022/03/07 11:25:50;;;;;;;6.22;5.05;;;;;;;3.71;62.47;102862.31;5037176;28;20236;-78
2022/03/07 11:28:17;;;;;;;5.75;5.28;;;;;;;3.75;62.50;102871.03;5038547;28;20102;-78